Wetterstation Vordersexau
Wetterdaten: Woche 19.09.16 - 25.09.16 (KW38)
Datum Zeit Temp. A. Feuchte A. Luftdruck Regen Wind Richtung Taupunkt Windchill Windben
21.09.2016 14:00 24,3 C 39 % 1014,8 hPa 19,2 l/m 8,4 km/h N-NO 9,4 C 23,8 C 4,7 km/h
21.09.2016 15:00 25,8 C 33 % 1014,4 hPa 0,0 l/m 11,0 km/h N-NO 8,3 C 24,9 C 6,1 km/h
21.09.2016 16:00 27,9 C 34 % 1014,1 hPa 0,0 l/m 0,0 km/h N-NO 10,6 C 27,9 C 0,0 km/h
21.09.2016 17:00 27,9 C 30 % 1014,0 hPa 0,0 l/m 9,7 km/h N 8,7 C 27,4 C 5,4 km/h
21.09.2016 18:00 25,8 C 38 % 1014,1 hPa 0,0 l/m 0,0 km/h N-NO 10,4 C 25,8 C 0,0 km/h
21.09.2016 19:00 19,4 C 52 % 1014,9 hPa 0,0 l/m 13,6 km/h N-NO 9,3 C 16,9 C 7,6 km/h
21.09.2016 20:00 14,2 C 65 % 1015,5 hPa 0,0 l/m 0,0 km/h O-SO 7,7 C 14,2 C 0,0 km/h
21.09.2016 21:00 12,1 C 72 % 1016,1 hPa 0,0 l/m 0,0 km/h O-SO 7,2 C 12,1 C 0,0 km/h
21.09.2016 22:00 10,1 C 76 % 1016,6 hPa 0,0 l/m 0,0 km/h O-SO 6,1 C 10,1 C 0,0 km/h
21.09.2016 23:00 9,8 C 79 % 1016,9 hPa 0,0 l/m 0,0 km/h O-NO 6,3 C 9,8 C 0,0 km/h
22.09.2016 00:00 8,9 C 81 % 1017,2 hPa 0,0 l/m 0,0 km/h N-NO 5,8 C 8,9 C 0,0 km/h
22.09.2016 01:00 9,2 C 82 % 1017,5 hPa 0,0 l/m 0,0 km/h N-NO 6,3 C 9,2 C 0,0 km/h
22.09.2016 02:00 7,8 C 83 % 1017,6 hPa 0,0 l/m 0,0 km/h N-NO 5,1 C 7,8 C 0,0 km/h
22.09.2016 03:00 6,8 C 83 % 1017,8 hPa 0,0 l/m 0,0 km/h N-NO 4,1 C 6,8 C 0,0 km/h
22.09.2016 04:00 6,3 C 84 % 1017,5 hPa 0,0 l/m 0,0 km/h N-NO 3,8 C 6,3 C 0,0 km/h
22.09.2016 05:00 5,9 C 84 % 1017,9 hPa 0,0 l/m 0,0 km/h N-NO 3,4 C 5,9 C 0,0 km/h
22.09.2016 06:00 5,8 C 84 % 1018,0 hPa 0,0 l/m 0,0 km/h N-NO 3,3 C 5,8 C 0,0 km/h
22.09.2016 07:00 5,4 C 84 % 1018,2 hPa 0,0 l/m 0,0 km/h N-NO 2,9 C 5,4 C 0,0 km/h
22.09.2016 08:00 6,1 C 83 % 1018,7 hPa 0,0 l/m 0,0 km/h O-SO 3,4 C 6,1 C 0,0 km/h
22.09.2016 09:00 10,6 C 75 % 1019,2 hPa 0,0 l/m 0,0 km/h N-NO 6,4 C 10,6 C 0,0 km/h
22.09.2016 10:00 16,6 C 71 % 1019,3 hPa 0,0 l/m 0,0 km/h W 11,3 C 16,6 C 0,0 km/h
22.09.2016 11:00 19,9 C 58 % 1019,4 hPa 0,0 l/m 0,0 km/h SW 11,4 C 19,9 C 0,0 km/h
22.09.2016 12:00 21,9 C 54 % 1019,3 hPa 0,0 l/m 2,6 km/h N-NO 12,2 C 21,9 C 1,4 km/h
22.09.2016 13:00 23,9 C 48 % 1018,8 hPa 0,0 l/m 0,0 km/h N-NO 12,2 C 23,9 C 0,0 km/h
22.09.2016 14:00 24,3 C 40 % 1018,4 hPa 0,0 l/m 0,0 km/h W-NW 9,8 C 24,3 C 0,0 km/h
22.09.2016 15:00 25,6 C 39 % 1018,1 hPa 0,0 l/m 10,4 km/h N 10,6 C 24,8 C 5,8 km/h
22.09.2016 16:00 26,6 C 37 % 1018,0 hPa 0,0 l/m 1,9 km/h W-NW 10,7 C 26,6 C 1,1 km/h
22.09.2016 17:00 28,2 C 35 % 1017,8 hPa 0,0 l/m 0,0 km/h N 11,3 C 28,2 C 0,0 km/h
22.09.2016 18:00 22,2 C 43 % 1017,9 hPa 0,0 l/m 0,0 km/h N 9,0 C 22,2 C 0,0 km/h
22.09.2016 19:00 19,6 C 54 % 1018,4 hPa 0,0 l/m 0,0 km/h N 10,0 C 19,6 C 0,0 km/h
22.09.2016 20:00 13,6 C 70 % 1018,9 hPa 0,0 l/m 0,0 km/h N 8,2 C 13,6 C 0,0 km/h
Min-Datum _ 22.09.16 21.09.16 21.09.16 - 21.09.16 - 22.09.16 22.09.16 21.09.16
_ Min-Zeit 07:12 17:12 17:12 - 16:12 - 07:12 07:12 16:12
Minimum _ 5,4 C 30 % 1014,0 hPa - 0,0 km/h - 2,9 C 5,4 C 0,0 km/h
Max-Datum _ 22.09.16 22.09.16 22.09.16 21.09.16 21.09.16 - 22.09.16 22.09.16 21.09.16
_ Max-Zeit 17:12 04:12 11:12 14:12 19:12 - 13:12 17:12 19:12
Maximum _ 28,2 C 84 % 1019,4 hPa 19,2 l/m 13,6 km/h
N-NO
- 12,2 C 28,2 C 7,6 km/h
N-NO
Durchschnitt _ 16,5 C 61 % 1017,3 hPa #19,2 l/m 1,9 km/h N-NO 7,9 C 16,4 C 1,0 km/h
www.sexauwetter.de